Time;durP1;ratioP1;P1;durP2;ratioP2;P2;SDS_P1;SDS_P2;PMS_P1;PMS_P2;Temp;Humidity;BMP_temperature;BMP_pressure;BME280_temperature;BME280_humidity;BME280_pressure;Samples;Min_cycle;Max_cycle;Signal;HPM_P1;HPM_P2
2022/01/25 00:08:40;;;;;;;45.33;20.83;;;;;;;3.76;100.00;102764.19;7397868;19;20018;-67
2022/01/25 00:24:48;;;;;;;46.40;21.13;;;;;;;3.76;100.00;102771.97;7399219;19;20515;-67
2022/01/25 00:27:37;;;;;;;45.05;21.02;;;;;;;3.74;100.00;102768.44;7397584;19;20546;-67
2022/01/25 00:30:24;;;;;;;44.92;21.48;;;;;;;3.72;100.00;102762.31;7398370;19;20011;-67
2022/01/25 00:32:52;;;;;;;49.25;22.88;;;;;;;3.70;100.00;102756.16;7399117;19;20090;-67
2022/01/25 00:35:20;;;;;;;45.15;20.77;;;;;;;3.68;100.00;102748.31;7398331;19;20074;-66
2022/01/25 00:37:52;;;;;;;46.33;21.48;;;;;;;3.67;100.00;102743.94;7400248;19;20035;-65
2022/01/25 00:40:21;;;;;;;48.70;21.95;;;;;;;3.65;100.00;102745.63;7397842;19;20109;-65
2022/01/25 00:42:49;;;;;;;50.15;21.58;;;;;;;3.65;100.00;102748.22;7398479;19;20015;-65
2022/01/25 00:45:19;;;;;;;51.85;21.75;;;;;;;3.63;100.00;102747.25;7396505;19;20031;-65
2022/01/25 00:47:50;;;;;;;46.00;21.60;;;;;;;3.62;100.00;102753.28;7396418;19;20091;-66
2022/01/25 00:50:18;;;;;;;48.45;23.05;;;;;;;3.62;100.00;102747.22;7398623;19;20040;-67
2022/01/25 00:55:31;;;;;;;51.58;22.88;;;;;;;3.61;100.00;102746.31;7398153;19;20023;-66
2022/01/25 00:57:59;;;;;;;48.53;22.55;;;;;;;3.62;100.00;102742.88;7395686;19;20372;-66
2022/01/25 01:00:28;;;;;;;49.17;22.42;;;;;;;3.62;100.00;102753.28;7397615;19;20028;-64
2022/01/25 01:02:57;;;;;;;47.00;21.98;;;;;;;3.63;100.00;102748.94;7395718;19;20031;-66
2022/01/25 01:05:25;;;;;;;50.63;21.92;;;;;;;3.64;100.00;102751.63;7397678;19;20018;-66
2022/01/25 01:07:53;;;;;;;42.75;20.85;;;;;;;3.64;100.00;102745.53;7396222;19;20018;-65
2022/01/25 01:10:24;;;;;;;43.40;20.25;;;;;;;3.66;100.00;102738.72;7397418;19;20027;-66
2022/01/25 01:13:29;;;;;;;43.15;20.80;;;;;;;3.66;100.00;102729.19;7396066;19;20015;-65
2022/01/25 01:16:08;;;;;;;50.05;22.65;;;;;;;3.66;100.00;102724.00;7397372;19;20361;-65
2022/01/25 01:29:32;;;;;;;47.92;21.75;;;;;;;3.67;100.00;102705.00;7397435;19;20029;-65
2022/01/25 01:32:13;;;;;;;42.22;20.77;;;;;;;3.67;100.00;102707.59;7397316;19;20042;-66
2022/01/25 01:35:11;;;;;;;50.13;21.85;;;;;;;3.68;100.00;102703.31;7397143;19;20022;-67
2022/01/25 01:38:01;;;;;;;45.38;20.33;;;;;;;3.67;100.00;102707.59;7394993;19;20014;-66
2022/01/25 01:40:56;;;;;;;45.45;20.73;;;;;;;3.66;100.00;102702.38;7395325;19;20035;-66
2022/01/25 01:43:32;;;;;;;40.33;20.20;;;;;;;3.64;100.00;102698.81;7396806;19;20031;-66
2022/01/25 01:46:22;;;;;;;45.47;21.10;;;;;;;3.64;100.00;102698.81;7396665;19;20022;-66
2022/01/25 01:48:55;;;;;;;41.90;20.08;;;;;;;3.63;100.00;102703.13;7394650;19;20018;-67
2022/01/25 01:51:29;;;;;;;47.65;21.30;;;;;;;3.63;100.00;102703.13;7396743;19;20116;-67
2022/01/25 01:54:00;;;;;;;44.17;20.25;;;;;;;3.62;100.00;102698.75;7394134;19;20353;-67
2022/01/25 01:56:29;;;;;;;43.20;20.10;;;;;;;3.62;100.00;102703.09;7394696;19;20014;-66
2022/01/25 01:59:00;;;;;;;40.55;19.30;;;;;;;3.61;100.00;102699.59;7395958;19;20015;-68
2022/01/25 02:01:33;;;;;;;42.17;20.95;;;;;;;3.61;100.00;102702.19;7393856;19;20495;-66
2022/01/25 02:04:03;;;;;;;41.87;19.77;;;;;;;3.62;100.00;102700.47;7393835;19;20349;-67
2022/01/25 02:06:31;;;;;;;39.35;20.33;;;;;;;3.60;100.00;102692.63;7395034;19;20015;-66
2022/01/25 02:08:59;;;;;;;37.45;20.25;;;;;;;3.61;100.00;102689.19;7395327;19;20425;-67
2022/01/25 02:11:28;;;;;;;37.40;20.08;;;;;;;3.61;100.00;102688.31;7393842;19;20022;-66
2022/01/25 02:14:02;;;;;;;35.17;18.75;;;;;;;3.60;100.00;102705.59;7396742;19;20026;-67
2022/01/25 02:16:42;;;;;;;;;;;;;;;3.59;100.00;102706.44;7396500;19;20090;-66
2022/01/25 02:24:37;;;;;;;33.40;19.77;;;;;;;3.53;100.00;102699.28;7395524;19;20006;-67
2022/01/25 02:27:06;;;;;;;32.35;18.75;;;;;;;3.54;100.00;102702.78;7393417;19;20014;-67
2022/01/25 02:29:34;;;;;;;40.67;21.05;;;;;;;3.53;100.00;102694.09;7395070;19;20015;-67
2022/01/25 02:32:02;;;;;;;44.17;21.25;;;;;;;3.53;100.00;102691.50;7394969;19;20011;-68
2022/01/25 02:34:31;;;;;;;38.75;21.02;;;;;;;3.50;100.00;102698.28;7393043;19;20018;-67
2022/01/25 02:37:03;;;;;;;34.80;20.55;;;;;;;3.49;100.00;102691.31;7394138;19;20036;-67
2022/01/25 02:39:32;;;;;;;41.25;22.27;;;;;;;3.46;100.00;102683.44;7393391;19;20022;-67
2022/01/25 02:42:00;;;;;;;42.83;23.15;;;;;;;3.44;100.00;102680.78;7393476;19;20472;-67
2022/01/25 02:44:29;;;;;;;38.17;21.33;;;;;;;3.42;100.00;102679.81;7392890;19;20036;-66
2022/01/25 02:49:41;;;;;;;35.67;19.73;;;;;;;3.42;100.00;102670.34;7394681;19;20074;-67
2022/01/25 02:52:11;;;;;;;40.92;20.25;;;;;;;3.42;100.00;102672.94;7392680;19;20027;-67
2022/01/25 02:54:41;;;;;;;38.78;21.75;;;;;;;3.42;100.00;102672.94;7394157;19;20479;-67
2022/01/25 02:57:09;;;;;;;35.15;19.63;;;;;;;3.42;100.00;102666.84;7393848;19;20018;-68
2022/01/25 02:59:44;;;;;;;31.05;18.10;;;;;;;3.41;100.00;102665.97;7394452;19;20015;-67
2022/01/25 03:02:13;;;;;;;29.98;18.27;;;;;;;3.41;100.00;102665.97;7392276;19;20027;-67
2022/01/25 03:04:41;;;;;;;32.33;17.98;;;;;;;3.40;100.00;102661.59;7393889;19;20492;-67
2022/01/25 03:07:12;;;;;;;26.55;16.73;;;;;;;3.38;100.00;102658.06;7393321;19;20016;-68
2022/01/25 03:09:41;;;;;;;27.45;15.13;;;;;;;3.37;100.00;102653.69;7392598;19;20018;-68
2022/01/25 03:12:14;;;;;;;26.85;16.42;;;;;;;3.38;100.00;102654.59;7392128;19;20029;-68
2022/01/25 03:14:59;;;;;;;27.40;17.10;;;;;;;3.37;99.67;102650.22;7394497;19;20014;-68
2022/01/25 03:17:30;;;;;;;;;;;;;;;3.33;97.94;102645.75;7394953;19;20014;-67
2022/01/25 03:20:17;;;;;;;25.42;16.15;;;;;;;3.32;98.78;102655.22;7393400;19;19915;-69
2022/01/25 03:22:59;;;;;;;23.15;15.18;;;;;;;3.32;99.36;102663.00;7393492;19;20431;-67
2022/01/25 03:25:28;;;;;;;23.73;14.90;;;;;;;3.29;98.30;102662.91;7394377;19;20011;-67
2022/01/25 03:27:57;;;;;;;23.33;15.13;;;;;;;3.30;98.48;102653.38;7398293;19;20027;-67
2022/01/25 03:30:26;;;;;;;23.30;15.75;;;;;;;3.31;99.73;102666.44;7400615;19;20015;-67
2022/01/25 03:32:54;;;;;;;25.60;16.40;;;;;;;3.31;98.97;102660.34;7397503;19;20370;-68
2022/01/25 03:35:22;;;;;;;20.33;13.68;;;;;;;3.29;96.50;102662.91;7397635;19;20038;-68
2022/01/25 03:37:53;;;;;;;20.55;13.45;;;;;;;3.24;92.95;102652.31;7397581;19;20370;-68
2022/01/25 03:40:21;;;;;;;20.95;14.68;;;;;;;3.26;94.77;102653.28;7397838;19;20533;-67
2022/01/25 03:42:49;;;;;;;21.75;14.45;;;;;;;3.28;97.26;102645.56;7398724;19;20022;-68
2022/01/25 03:45:22;;;;;;;27.25;16.38;;;;;;;3.30;96.86;102649.09;7400356;19;20018;-67
2022/01/25 03:49:47;;;;;;;27.15;17.25;;;;;;;3.31;96.99;102644.78;7398748;19;20025;-68
2022/01/25 03:50:47;;;;;;;25.27;15.43;;;;;;;3.30;98.28;102633.53;7399538;19;20452;-68
2022/01/25 03:53:20;;;;;;;27.70;16.30;;;;;;;3.31;98.16;102644.78;7400142;19;20018;-66
2022/01/25 03:55:50;;;;;;;30.03;16.80;;;;;;;3.29;97.85;102647.31;7398982;19;20036;-66
2022/01/25 03:58:20;;;;;;;28.70;16.83;;;;;;;3.30;97.67;102649.09;7397780;19;20011;-67
2022/01/25 04:00:49;;;;;;;32.92;21.23;;;;;;;3.28;97.59;102652.47;7397466;19;20022;-68
2022/01/25 04:03:24;;;;;;;30.20;18.08;;;;;;;3.26;97.18;102660.16;7397685;19;20077;-67
2022/01/25 04:05:53;;;;;;;34.50;18.02;;;;;;;3.22;98.16;102656.59;7397810;19;20014;-68
2022/01/25 04:08:25;;;;;;;31.80;18.00;;;;;;;3.24;99.39;102659.25;7397323;19;20025;-68
2022/01/25 04:10:53;;;;;;;31.17;17.35;;;;;;;3.26;99.04;102666.25;7397535;19;20035;-67
2022/01/25 04:13:21;;;;;;;30.27;17.25;;;;;;;3.22;97.86;102664.38;7396636;19;20361;-67
2022/01/25 04:15:52;;;;;;;30.65;18.33;;;;;;;3.23;98.85;102655.75;7400142;19;20023;-67
2022/01/25 04:18:30;;;;;;;30.30;17.85;;;;;;;3.21;97.77;102661.69;7396915;19;20032;-67
2022/01/25 04:21:06;;;;;;;33.25;19.42;;;;;;;3.19;98.42;102655.56;7396916;19;20013;-67
2022/01/25 04:26:18;;;;;;;34.55;19.58;;;;;;;3.19;99.74;102656.44;7398944;19;20007;-68
2022/01/25 04:28:46;;;;;;;35.35;19.70;;;;;;;3.20;99.81;102653.03;7398279;19;20023;-68
2022/01/25 04:31:18;;;;;;;29.63;17.90;;;;;;;3.20;99.53;102645.25;7402981;19;20014;-68
2022/01/25 04:34:07;;;;;;;31.38;18.00;;;;;;;3.19;98.82;102647.81;7398103;19;20030;-68
2022/01/25 04:36:57;;;;;;;29.50;16.75;;;;;;;3.17;97.68;102659.81;7397600;19;20017;-68
2022/01/25 04:50:23;;;;;;;23.48;14.13;;;;;;;3.02;96.00;102645.44;7398345;19;20519;-67
2022/01/25 04:52:59;;;;;;;24.85;13.82;;;;;;;3.02;96.58;102645.44;7398180;19;20049;-68
2022/01/25 04:55:36;;;;;;;24.13;13.63;;;;;;;3.02;96.57;102636.75;7398565;19;20014;-67
2022/01/25 04:58:11;;;;;;;26.30;15.25;;;;;;;3.02;96.34;102637.66;7396052;19;20360;-67
2022/01/25 05:00:39;;;;;;;27.00;15.32;;;;;;;3.01;95.89;102638.47;7396336;19;20022;-67
2022/01/25 05:03:11;;;;;;;22.25;14.38;;;;;;;3.01;96.71;102632.38;7395644;19;20018;-66
2022/01/25 05:05:53;;;;;;;23.60;14.70;;;;;;;3.02;96.94;102644.50;7395757;19;20018;-67
2022/01/25 05:08:32;;;;;;;27.15;14.63;;;;;;;3.01;96.56;102642.75;7395637;19;20086;-68
2022/01/25 05:11:08;;;;;;;26.55;15.05;;;;;;;3.03;98.53;102639.41;7395872;19;20018;-66
2022/01/25 05:13:46;;;;;;;29.08;17.17;;;;;;;3.05;99.13;102637.75;7397749;19;20022;-66
2022/01/25 05:16:28;;;;;;;26.25;15.23;;;;;;;3.05;97.55;102640.34;7396682;19;20483;-67
2022/01/25 05:19:04;;;;;;;29.33;16.98;;;;;;;3.07;98.47;102640.41;7397532;19;20019;-66
2022/01/25 05:24:13;;;;;;;26.83;15.52;;;;;;;3.06;97.93;102633.47;7397135;19;20037;-67
2022/01/25 05:26:44;;;;;;;28.17;15.02;;;;;;;3.05;98.57;102627.38;7396678;19;20019;-68
2022/01/25 05:29:13;;;;;;;27.75;14.77;;;;;;;3.06;98.60;102639.53;7395210;19;20018;-68
2022/01/25 05:31:41;;;;;;;28.02;17.05;;;;;;;3.06;99.03;102639.53;7394683;19;20032;-68
2022/01/25 05:34:10;;;;;;;26.60;15.77;;;;;;;3.07;98.11;102645.59;7395839;19;20069;-66
2022/01/25 05:36:39;;;;;;;29.33;16.95;;;;;;;3.07;98.27;102653.38;7395239;19;20073;-67
2022/01/25 05:39:12;;;;;;;32.70;16.85;;;;;;;3.02;94.90;102662.66;7394617;19;20018;-68
2022/01/25 05:41:41;;;;;;;35.03;18.17;;;;;;;2.99;94.93;102658.25;7396453;19;20026;-67
2022/01/25 05:44:23;;;;;;;40.60;19.80;;;;;;;2.99;96.35;102665.16;7393793;19;20485;-67
2022/01/25 05:47:05;;;;;;;53.05;24.52;;;;;;;2.93;95.35;102671.88;7394471;19;20082;-68
2022/01/25 05:49:33;;;;;;;52.13;23.48;;;;;;;2.84;94.13;102676.66;7393389;19;20018;-68
2022/01/25 05:52:01;;;;;;;55.45;25.25;;;;;;;2.77;95.26;102672.06;7393422;19;20022;-70
2022/01/25 05:54:29;;;;;;;57.80;26.33;;;;;;;2.69;95.59;102674.34;7396018;19;20037;-67
2022/01/25 05:56:58;;;;;;;55.42;24.65;;;;;;;2.65;96.43;102680.19;7394635;19;20035;-68
2022/01/25 05:59:28;;;;;;;51.67;23.70;;;;;;;2.60;96.06;102679.13;7392454;19;20504;-66
2022/01/25 06:01:57;;;;;;;58.50;27.63;;;;;;;2.58;96.62;102688.56;7393138;19;20028;-68
2022/01/25 06:04:25;;;;;;;60.42;26.88;;;;;;;2.57;97.82;102689.38;7395159;19;20031;-68
2022/01/25 06:06:54;;;;;;;63.42;27.75;;;;;;;2.55;97.70;102684.13;7391928;19;20018;-68
2022/01/25 06:09:24;;;;;;;58.55;24.88;;;;;;;2.52;97.68;102683.97;7392158;19;20022;-68
2022/01/25 06:11:52;;;;;;;64.53;25.50;;;;;;;2.51;98.11;102686.50;7395577;19;20015;-67
2022/01/25 06:14:21;;;;;;;67.60;26.92;;;;;;;2.49;97.83;102696.81;7394968;19;20039;-68
2022/01/25 06:16:51;;;;;;;58.60;27.15;;;;;;;2.49;98.76;102693.31;7392973;19;20022;-68
2022/01/25 06:19:19;;;;;;;62.58;24.63;;;;;;;2.49;99.21;102694.22;7393680;19;20023;-67
2022/01/25 06:21:48;;;;;;;61.58;25.52;;;;;;;2.50;99.00;102689.91;7392471;19;20023;-68
2022/01/25 06:24:16;;;;;;;63.67;26.20;;;;;;;2.48;99.02;102684.66;7393060;19;20019;-68
2022/01/25 06:26:44;;;;;;;68.38;27.88;;;;;;;2.46;97.60;102683.72;7394175;19;20030;-68
2022/01/25 06:29:18;;;;;;;63.67;26.55;;;;;;;2.42;98.00;102692.19;7394849;19;20031;-66
2022/01/25 06:31:47;;;;;;;63.13;26.33;;;;;;;2.37;97.21;102685.91;7393338;19;20011;-67
2022/01/25 06:34:18;;;;;;;63.83;27.63;;;;;;;2.36;98.09;102684.13;7393539;19;20090;-67
2022/01/25 06:36:47;;;;;;;64.90;26.40;;;;;;;2.35;98.41;102684.94;7394094;19;20037;-68
2022/01/25 06:39:16;;;;;;;61.95;27.27;;;;;;;2.34;99.01;102684.06;7392089;19;20035;-67
2022/01/25 06:41:44;;;;;;;68.18;27.35;;;;;;;2.35;98.99;102685.84;7391870;19;20028;-67
2022/01/25 06:44:12;;;;;;;69.13;28.30;;;;;;;2.37;99.78;102681.59;7392301;19;20025;-68
2022/01/25 06:46:40;;;;;;;62.42;27.85;;;;;;;2.38;99.33;102680.78;7393442;19;20018;-67
2022/01/25 06:49:08;;;;;;;64.07;27.88;;;;;;;2.38;99.15;102683.38;7394445;19;20028;-67
2022/01/25 06:51:39;;;;;;;68.57;27.95;;;;;;;2.39;99.67;102676.47;7394406;19;20035;-68
2022/01/25 06:54:07;;;;;;;71.95;28.92;;;;;;;2.41;99.11;102686.13;7392865;19;20010;-67
2022/01/25 06:56:36;;;;;;;62.33;24.23;;;;;;;2.39;98.73;102679.97;7392230;19;20026;-67
2022/01/25 06:59:05;;;;;;;62.22;25.83;;;;;;;2.37;98.59;102679.00;7394161;19;20019;-68
2022/01/25 07:01:33;;;;;;;63.05;26.52;;;;;;;2.39;99.16;102687.75;7399367;19;20461;-68
2022/01/25 07:04:01;;;;;;;66.97;25.65;;;;;;;2.38;98.00;102691.16;7398229;19;20035;-67
2022/01/25 07:06:30;;;;;;;62.10;25.77;;;;;;;2.35;98.01;102696.22;7397816;19;20015;-68
2022/01/25 07:09:02;;;;;;;61.88;25.75;;;;;;;2.33;98.32;102697.84;7401299;19;20015;-67
2022/01/25 07:11:31;;;;;;;60.47;25.50;;;;;;;2.31;97.96;102704.66;7401557;19;20018;-68
2022/01/25 07:13:59;;;;;;;64.82;26.10;;;;;;;2.31;98.16;102698.59;7401723;19;20017;-68
2022/01/25 07:16:27;;;;;;;64.93;27.00;;;;;;;2.29;98.28;102695.94;7400504;19;20018;-68
2022/01/25 07:18:55;;;;;;;64.30;26.58;;;;;;;2.31;99.11;102702.06;7400563;19;20370;-68
2022/01/25 07:21:24;;;;;;;67.60;27.08;;;;;;;2.32;99.31;102700.38;7397621;19;20017;-68
2022/01/25 07:23:52;;;;;;;64.43;26.42;;;;;;;2.33;99.02;102699.56;7398896;19;20014;-67
2022/01/25 07:26:22;;;;;;;60.47;24.73;;;;;;;2.34;98.73;102698.72;7400444;19;20471;-67
2022/01/25 07:28:51;;;;;;;64.88;26.88;;;;;;;2.33;99.02;102703.03;7398285;19;20026;-67
2022/01/25 07:31:20;;;;;;;67.45;26.88;;;;;;;2.34;98.94;102709.06;7397916;19;20022;-67
2022/01/25 07:33:48;;;;;;;66.95;25.15;;;;;;;2.34;99.10;102704.81;7400238;19;20443;-68
2022/01/25 07:36:16;;;;;;;65.53;25.65;;;;;;;2.35;98.98;102704.00;7399931;19;20039;-67
2022/01/25 07:38:45;;;;;;;64.85;24.83;;;;;;;2.35;99.82;102701.41;7400307;19;20317;-66
2022/01/25 07:41:13;;;;;;;58.78;25.10;;;;;;;2.37;99.31;102709.22;7398293;19;20018;-68
2022/01/25 07:43:44;;;;;;;66.18;25.48;;;;;;;2.36;98.98;102710.91;7398619;19;20510;-67
2022/01/25 07:46:15;;;;;;;63.10;25.95;;;;;;;2.36;99.19;102710.03;7397917;19;20018;-67
2022/01/25 07:48:43;;;;;;;59.30;25.38;;;;;;;2.37;99.27;102710.09;7400609;19;20023;-67
2022/01/25 07:51:11;;;;;;;63.78;25.77;;;;;;;2.39;99.54;102712.75;7400065;19;20031;-67
2022/01/25 07:53:41;;;;;;;62.22;26.33;;;;;;;2.40;99.30;102712.84;7400092;19;20018;-68
2022/01/25 07:56:09;;;;;;;58.67;24.40;;;;;;;2.42;99.00;102712.91;7399965;19;20018;-67
2022/01/25 07:58:37;;;;;;;56.67;22.90;;;;;;;2.42;98.74;102707.72;7396859;19;20022;-68
2022/01/25 08:01:08;;;;;;;58.75;23.90;;;;;;;2.41;99.03;102706.84;7399221;19;20022;-68
2022/01/25 08:03:36;;;;;;;59.88;24.73;;;;;;;2.42;98.93;102705.13;7398933;19;20027;-68
2022/01/25 08:06:05;;;;;;;57.88;23.92;;;;;;;2.42;98.78;102706.00;7399556;19;20018;-68
2022/01/25 08:08:33;;;;;;;59.05;24.15;;;;;;;2.40;98.72;102697.31;7397023;19;20040;-68
2022/01/25 08:11:02;;;;;;;55.55;23.15;;;;;;;2.44;99.50;102703.50;7398789;19;20014;-69
2022/01/25 08:13:30;;;;;;;61.00;25.25;;;;;;;2.44;99.26;102698.31;7401712;19;20023;-66
2022/01/25 08:15:59;;;;;;;55.40;24.17;;;;;;;2.43;98.87;102710.38;7396217;19;20451;-65
2022/01/25 08:18:29;;;;;;;63.53;26.33;;;;;;;2.44;98.95;102713.88;7396047;19;20377;-67
2022/01/25 08:20:58;;;;;;;57.60;23.58;;;;;;;2.44;99.61;102714.75;7396575;19;20027;-68
2022/01/25 08:23:26;;;;;;;59.00;24.73;;;;;;;2.45;98.73;102713.03;7396188;19;20040;-66
2022/01/25 08:25:54;;;;;;;61.08;26.52;;;;;;;2.38;98.87;102695.47;7398700;19;20046;-66
2022/01/25 08:28:23;;;;;;;62.78;24.38;;;;;;;2.44;98.36;102706.09;7396528;19;20023;-67
2022/01/25 08:30:51;;;;;;;54.63;24.02;;;;;;;2.44;98.48;102703.50;7396576;19;20018;-67
2022/01/25 08:33:19;;;;;;;65.07;25.40;;;;;;;2.43;98.93;102707.78;7396282;19;20018;-66
2022/01/25 08:35:50;;;;;;;55.03;23.85;;;;;;;2.42;97.94;102708.59;7396042;19;20018;-64
2022/01/25 08:38:18;;;;;;;56.17;24.25;;;;;;;2.43;98.81;102702.59;7396832;19;20027;-66
2022/01/25 08:40:46;;;;;;;61.13;23.63;;;;;;;2.42;98.49;102703.41;7396292;19;20068;-66
2022/01/25 08:43:14;;;;;;;55.08;23.80;;;;;;;2.43;98.25;102704.31;7395657;19;20365;-66
2022/01/25 08:45:44;;;;;;;52.40;23.25;;;;;;;2.42;98.03;102711.19;7398226;19;20014;-66
2022/01/25 08:48:12;;;;;;;51.33;22.83;;;;;;;2.43;98.81;102704.31;7396222;19;20019;-66
2022/01/25 08:50:40;;;;;;;57.53;24.75;;;;;;;2.44;98.79;102706.97;7396243;19;20023;-66
2022/01/25 08:53:17;;;;;;;55.65;23.50;;;;;;;2.46;98.70;102700.97;7398091;19;20031;-66
2022/01/25 08:55:45;;;;;;;53.30;24.33;;;;;;;2.44;97.92;102696.59;7395737;19;20609;-66
2022/01/25 08:58:13;;;;;;;51.80;22.02;;;;;;;2.45;97.54;102702.66;7396142;19;20014;-66
2022/01/25 09:00:42;;;;;;;54.47;22.90;;;;;;;2.44;97.84;102701.78;7395578;19;20023;-66
2022/01/25 09:03:10;;;;;;;58.15;22.40;;;;;;;2.46;98.05;102693.19;7397001;19;20032;-66
2022/01/25 09:05:38;;;;;;;50.22;21.92;;;;;;;2.45;97.59;102694.88;7396230;19;20024;-66
2022/01/25 09:08:07;;;;;;;48.97;21.10;;;;;;;2.47;98.01;102705.34;7395582;19;20032;-67
2022/01/25 09:10:38;;;;;;;54.10;22.55;;;;;;;2.46;97.75;102698.38;7397283;19;20018;-66
2022/01/25 09:13:06;;;;;;;50.50;22.92;;;;;;;2.46;97.33;102694.06;7397623;19;20024;-66
2022/01/25 09:15:35;;;;;;;53.05;21.48;;;;;;;2.47;98.39;102697.56;7395280;19;20018;-67
2022/01/25 09:18:03;;;;;;;50.42;22.33;;;;;;;2.48;98.33;102694.13;7395520;19;20031;-66
2022/01/25 09:20:38;;;;;;;49.75;21.35;;;;;;;2.49;97.67;102701.09;7393894;19;20468;-66
2022/01/25 09:23:15;;;;;;;55.65;22.42;;;;;;;2.48;98.11;102701.91;7395090;19;20022;-65
2022/01/25 09:25:47;;;;;;;61.05;25.45;;;;;;;2.48;98.15;102697.63;7396502;19;20022;-67
2022/01/25 09:28:16;;;;;;;63.83;26.63;;;;;;;2.49;98.85;102693.31;7394336;19;20022;-66
2022/01/25 09:30:45;;;;;;;50.63;21.15;;;;;;;2.51;98.87;102699.47;7394351;19;20018;-66
2022/01/25 09:33:13;;;;;;;53.90;21.55;;;;;;;2.51;98.81;102699.47;7395768;19;20039;-67
2022/01/25 09:35:43;;;;;;;50.55;21.55;;;;;;;2.49;98.67;102695.91;7396324;19;20022;-66
2022/01/25 09:38:11;;;;;;;48.65;22.00;;;;;;;2.51;98.92;102689.09;7394698;19;20022;-66
2022/01/25 09:40:39;;;;;;;50.97;20.75;;;;;;;2.51;98.61;102689.97;7396320;19;20365;-66
2022/01/25 09:43:10;;;;;;;53.42;20.50;;;;;;;2.52;98.70;102685.69;7396174;19;20386;-65
2022/01/25 09:45:39;;;;;;;49.15;19.70;;;;;;;2.51;98.13;102683.91;7394656;19;20357;-67
2022/01/25 09:48:09;;;;;;;44.45;18.75;;;;;;;2.51;98.11;102689.09;7394482;19;20018;-67
2022/01/25 09:50:38;;;;;;;49.88;20.80;;;;;;;2.51;98.36;102677.00;7396019;19;20082;-65
2022/01/25 09:53:07;;;;;;;43.85;18.33;;;;;;;2.53;98.50;102677.09;7394043;19;20027;-66
2022/01/25 09:55:39;;;;;;;51.97;19.67;;;;;;;2.52;98.44;102667.56;7394207;19;20026;-66
2022/01/25 09:58:12;;;;;;;47.95;20.52;;;;;;;2.57;98.48;102672.09;7394147;19;20033;-66
2022/01/25 10:00:42;;;;;;;45.40;20.30;;;;;;;2.59;98.36;102664.38;7396114;19;20021;-66
2022/01/25 10:03:17;;;;;;;48.13;19.25;;;;;;;2.63;99.13;102670.59;7395602;19;20018;-65
2022/01/25 10:05:47;;;;;;;42.40;19.17;;;;;;;2.67;98.51;102668.19;7396361;19;20014;-68
2022/01/25 10:08:17;;;;;;;41.47;19.05;;;;;;;2.70;98.38;102664.84;7394107;19;20019;-68
2022/01/25 10:10:48;;;;;;;44.35;19.48;;;;;;;2.70;97.98;102673.50;7395509;19;20035;-67
2022/01/25 10:13:22;;;;;;;53.05;19.38;;;;;;;2.72;97.98;102660.63;7395681;19;20018;-67
2022/01/25 10:15:52;;;;;;;43.20;19.35;;;;;;;2.76;98.65;102668.56;7395156;19;20091;-67
2022/01/25 10:18:21;;;;;;;39.88;19.15;;;;;;;2.80;98.27;102668.72;7393439;19;20023;-66
2022/01/25 10:20:51;;;;;;;40.22;18.02;;;;;;;2.83;97.92;102659.34;7392749;19;20028;-66
2022/01/25 10:23:30;;;;;;;41.45;18.25;;;;;;;2.87;97.42;102662.94;7395598;19;20011;-65
2022/01/25 10:26:02;;;;;;;37.78;16.50;;;;;;;2.86;96.43;102654.28;7394157;19;20090;-67
2022/01/25 10:28:33;;;;;;;43.90;18.75;;;;;;;2.88;97.54;102655.25;7393300;19;20040;-66
2022/01/25 10:31:04;;;;;;;36.58;15.73;;;;;;;2.91;97.36;102651.88;7395746;19;20019;-67
2022/01/25 10:33:36;;;;;;;39.42;18.05;;;;;;;2.96;97.17;102652.94;7394917;19;20031;-68
2022/01/25 10:36:13;;;;;;;33.55;15.50;;;;;;;3.01;96.82;102646.25;7398607;19;20027;-66
2022/01/25 10:38:43;;;;;;;38.38;16.58;;;;;;;3.05;96.08;102647.25;7399421;19;20014;-66
2022/01/25 10:41:14;;;;;;;30.73;15.60;;;;;;;3.10;96.70;102644.00;7399292;19;20014;-67
2022/01/25 10:43:46;;;;;;;31.52;15.80;;;;;;;3.16;95.83;102643.38;7402349;19;20378;-67
2022/01/25 10:46:19;;;;;;;31.77;14.57;;;;;;;3.22;96.16;102648.81;7402598;19;20035;-66
2022/01/25 10:48:50;;;;;;;33.40;15.57;;;;;;;3.28;95.98;102640.38;7403097;19;20031;-67
2022/01/25 10:51:21;;;;;;;29.15;14.32;;;;;;;3.36;95.64;102638.06;7399739;19;20018;-67
2022/01/25 10:54:07;;;;;;;31.63;14.02;;;;;;;3.42;94.71;102643.50;7399184;19;20044;-67
2022/01/25 10:56:41;;;;;;;29.77;14.35;;;;;;;3.48;94.23;102635.94;7402159;19;20018;-67
2022/01/25 10:59:15;;;;;;;27.52;15.00;;;;;;;3.54;93.84;102645.69;7398372;19;20483;-67
2022/01/25 11:01:48;;;;;;;35.55;15.13;;;;;;;3.62;94.08;102638.19;7402009;19;20019;-68
2022/01/25 11:04:18;;;;;;;33.03;15.85;;;;;;;3.67;92.88;102642.72;7399126;19;20035;-66
2022/01/25 11:06:47;;;;;;;33.53;15.20;;;;;;;3.73;93.49;102644.66;7400881;19;20038;-67
2022/01/25 11:09:17;;;;;;;30.13;13.60;;;;;;;3.76;94.52;102634.38;7401188;19;20401;-67
2022/01/25 11:11:52;;;;;;;27.30;14.27;;;;;;;3.80;93.54;102635.38;7401035;19;20010;-67
2022/01/25 11:17:03;;;;;;;29.35;13.93;;;;;;;3.85;94.74;102633.84;7400073;19;20015;-66
2022/01/25 11:19:32;;;;;;;26.65;13.48;;;;;;;3.87;95.40;102637.38;7398251;19;20039;-65
2022/01/25 11:22:07;;;;;;;25.67;12.35;;;;;;;3.90;93.27;102637.47;7395898;19;20010;-66
2022/01/25 11:24:42;;;;;;;25.75;12.60;;;;;;;3.89;91.22;102643.50;7396232;19;20011;-66
2022/01/25 11:27:10;;;;;;;27.42;14.52;;;;;;;3.89;91.50;102633.09;7399615;19;20019;-66
2022/01/25 11:29:44;;;;;;;30.92;13.85;;;;;;;3.84;90.24;102635.56;7400577;19;20015;-67
2022/01/25 11:32:15;;;;;;;25.05;12.82;;;;;;;3.85;92.02;102628.63;7400755;19;20031;-69
2022/01/25 11:34:46;;;;;;;28.42;14.32;;;;;;;3.88;92.37;102637.44;7400296;19;20496;-67
2022/01/25 11:37:14;;;;;;;23.05;12.25;;;;;;;3.89;91.72;102628.81;7397950;19;20018;-68
2022/01/25 11:39:45;;;;;;;24.63;11.32;;;;;;;3.90;91.59;102624.50;7400105;19;20019;-67
2022/01/25 11:42:15;;;;;;;25.75;12.02;;;;;;;3.92;91.69;102628.91;7398502;19;20381;-67
2022/01/25 11:44:55;;;;;;;24.15;11.98;;;;;;;3.92;88.86;102638.44;7398963;19;20480;-66
2022/01/25 11:47:31;;;;;;;26.83;13.82;;;;;;;3.91;89.99;102621.06;7399001;19;20487;-66
2022/01/25 11:50:02;;;;;;;22.27;12.43;;;;;;;3.90;89.62;102625.41;7404305;19;20031;-66
2022/01/25 11:52:33;;;;;;;26.27;12.27;;;;;;;3.92;90.44;102615.94;7397586;19;20479;-67
2022/01/25 11:55:23;;;;;;;24.55;12.93;;;;;;;3.97;91.54;102610.91;7397798;19;20015;-66
2022/01/25 11:57:56;;;;;;;23.92;12.02;;;;;;;4.00;91.54;102605.81;7397739;19;20015;-66
2022/01/25 12:00:44;;;;;;;24.55;12.05;;;;;;;4.05;91.51;102600.78;7397220;19;20027;-67
2022/01/25 12:03:28;;;;;;;24.40;12.15;;;;;;;4.03;90.60;102594.63;7400472;19;20401;-66
2022/01/25 12:06:04;;;;;;;28.10;12.07;;;;;;;4.08;91.70;102601.78;7396477;19;20015;-68
2022/01/25 12:08:40;;;;;;;27.10;12.38;;;;;;;4.08;91.67;102599.19;7396313;19;20019;-67
2022/01/25 12:11:28;;;;;;;27.52;13.25;;;;;;;4.07;87.89;102606.94;7395870;19;20095;-64
2022/01/25 12:14:13;;;;;;;25.52;11.90;;;;;;;4.00;86.48;102598.00;7398868;19;20007;-65
2022/01/25 12:16:46;;;;;;;26.10;14.02;;;;;;;4.01;88.91;102601.50;7397649;19;20022;-66
2022/01/25 12:19:16;;;;;;;32.40;14.80;;;;;;;4.00;88.99;102594.53;7398807;19;20015;-65
2022/01/25 12:21:59;;;;;;;33.03;16.08;;;;;;;4.01;90.38;102591.13;7395395;19;20429;-65
2022/01/25 12:24:32;;;;;;;36.42;18.27;;;;;;;4.03;90.85;102590.34;7394903;19;20595;-65
2022/01/25 12:27:07;;;;;;;31.27;16.67;;;;;;;4.06;90.36;102584.38;7396499;19;20026;-66
2022/01/25 12:29:39;;;;;;;25.75;13.90;;;;;;;4.07;89.87;102580.94;7396958;19;20011;-65
2022/01/25 12:32:23;;;;;;;32.47;15.50;;;;;;;4.06;88.14;102577.44;7397275;19;20018;-66
2022/01/25 12:35:16;;;;;;;28.73;14.45;;;;;;;4.07;87.78;102575.75;7397195;19;20035;-65
2022/01/25 12:37:59;;;;;;;31.13;15.10;;;;;;;4.08;87.92;102575.81;7395616;19;20022;-66
2022/01/25 12:40:39;;;;;;;30.38;15.13;;;;;;;4.08;90.65;102573.19;7395268;19;20374;-65